sensor_id;sensor_type;location;lat;lon;timestamp;P1;durP1;ratioP1;P2;durP2;ratioP2
60722;SDS011;46574;52.818;6.516;2023-04-22T00:01:21;8.75;;;7.95;;
60722;SDS011;46574;52.818;6.516;2023-04-22T00:03:48;8.88;;;8.07;;
60722;SDS011;46574;52.818;6.516;2023-04-22T00:06:15;9.23;;;8.43;;
60722;SDS011;46574;52.818;6.516;2023-04-22T00:08:42;9.63;;;8.73;;
60722;SDS011;46574;52.818;6.516;2023-04-22T00:11:07;8.98;;;8.18;;
60722;SDS011;46574;52.818;6.516;2023-04-22T00:13:33;9.05;;;8.25;;
60722;SDS011;46574;52.818;6.516;2023-04-22T00:15:59;9.02;;;8.23;;
60722;SDS011;46574;52.818;6.516;2023-04-22T00:18:25;9.93;;;8.98;;
60722;SDS011;46574;52.818;6.516;2023-04-22T00:20:50;9.90;;;9.00;;
60722;SDS011;46574;52.818;6.516;2023-04-22T00:23:16;9.85;;;8.93;;
60722;SDS011;46574;52.818;6.516;2023-04-22T00:25:41;8.35;;;7.22;;
60722;SDS011;46574;52.818;6.516;2023-04-22T00:28:07;22.00;;;7.85;;
60722;SDS011;46574;52.818;6.516;2023-04-22T00:30:34;23.60;;;6.10;;
60722;SDS011;46574;52.818;6.516;2023-04-22T00:33:00;39.22;;;7.20;;
60722;SDS011;46574;52.818;6.516;2023-04-22T00:35:25;63.80;;;9.75;;
60722;SDS011;46574;52.818;6.516;2023-04-22T00:37:51;15.75;;;6.57;;
60722;SDS011;46574;52.818;6.516;2023-04-22T00:40:16;6.47;;;5.88;;
60722;SDS011;46574;52.818;6.516;2023-04-22T00:42:42;6.00;;;5.50;;
60722;SDS011;46574;52.818;6.516;2023-04-22T00:45:09;6.70;;;6.10;;
60722;SDS011;46574;52.818;6.516;2023-04-22T00:47:36;7.93;;;7.22;;
60722;SDS011;46574;52.818;6.516;2023-04-22T00:50:02;7.63;;;6.93;;
60722;SDS011;46574;52.818;6.516;2023-04-22T00:52:28;8.30;;;7.50;;
60722;SDS011;46574;52.818;6.516;2023-04-22T00:54:55;8.27;;;7.47;;
60722;SDS011;46574;52.818;6.516;2023-04-22T00:57:21;7.80;;;7.07;;
60722;SDS011;46574;52.818;6.516;2023-04-22T00:59:46;11.48;;;10.45;;
60722;SDS011;46574;52.818;6.516;2023-04-22T01:02:13;8.93;;;8.07;;
60722;SDS011;46574;52.818;6.516;2023-04-22T01:04:39;8.75;;;7.95;;
60722;SDS011;46574;52.818;6.516;2023-04-22T01:07:05;8.57;;;7.78;;
60722;SDS011;46574;52.818;6.516;2023-04-22T01:09:31;9.63;;;8.70;;
60722;SDS011;46574;52.818;6.516;2023-04-22T01:11:57;9.20;;;8.30;;
60722;SDS011;46574;52.818;6.516;2023-04-22T01:14:22;9.00;;;8.20;;
60722;SDS011;46574;52.818;6.516;2023-04-22T01:16:50;10.43;;;9.35;;
60722;SDS011;46574;52.818;6.516;2023-04-22T01:19:17;9.75;;;8.77;;
60722;SDS011;46574;52.818;6.516;2023-04-22T01:21:43;9.95;;;9.05;;
60722;SDS011;46574;52.818;6.516;2023-04-22T01:24:10;8.70;;;7.90;;
60722;SDS011;46574;52.818;6.516;2023-04-22T01:26:36;10.65;;;9.65;;
60722;SDS011;46574;52.818;6.516;2023-04-22T01:29:03;7.32;;;6.72;;
60722;SDS011;46574;52.818;6.516;2023-04-22T01:31:29;9.02;;;8.23;;
60722;SDS011;46574;52.818;6.516;2023-04-22T01:33:55;8.60;;;7.80;;
60722;SDS011;46574;52.818;6.516;2023-04-22T01:36:21;7.95;;;7.15;;
60722;SDS011;46574;52.818;6.516;2023-04-22T01:38:47;7.97;;;7.28;;
60722;SDS011;46574;52.818;6.516;2023-04-22T01:41:13;7.50;;;6.88;;
60722;SDS011;46574;52.818;6.516;2023-04-22T01:43:39;8.77;;;7.97;;
60722;SDS011;46574;52.818;6.516;2023-04-22T01:46:05;8.13;;;7.43;;
60722;SDS011;46574;52.818;6.516;2023-04-22T01:48:33;8.30;;;7.50;;
60722;SDS011;46574;52.818;6.516;2023-04-22T01:50:59;7.97;;;7.28;;
60722;SDS011;46574;52.818;6.516;2023-04-22T01:53:25;8.05;;;7.25;;
60722;SDS011;46574;52.818;6.516;2023-04-22T01:55:51;8.20;;;7.43;;
60722;SDS011;46574;52.818;6.516;2023-04-22T01:58:17;7.25;;;6.65;;
60722;SDS011;46574;52.818;6.516;2023-04-22T02:00:43;8.55;;;7.70;;
60722;SDS011;46574;52.818;6.516;2023-04-22T02:03:08;7.70;;;7.00;;
60722;SDS011;46574;52.818;6.516;2023-04-22T02:05:35;7.97;;;7.18;;
60722;SDS011;46574;52.818;6.516;2023-04-22T02:08:02;7.57;;;6.88;;
60722;SDS011;46574;52.818;6.516;2023-04-22T02:10:28;7.93;;;7.22;;
60722;SDS011;46574;52.818;6.516;2023-04-22T02:12:54;9.18;;;8.45;;
60722;SDS011;46574;52.818;6.516;2023-04-22T02:15:20;9.65;;;8.75;;
60722;SDS011;46574;52.818;6.516;2023-04-22T02:17:47;10.55;;;9.55;;
60722;SDS011;46574;52.818;6.516;2023-04-22T02:20:13;9.63;;;8.73;;
60722;SDS011;46574;52.818;6.516;2023-04-22T02:22:39;9.10;;;8.30;;
60722;SDS011;46574;52.818;6.516;2023-04-22T02:25:06;9.38;;;8.52;;
60722;SDS011;46574;52.818;6.516;2023-04-22T02:27:33;11.07;;;10.02;;
60722;SDS011;46574;52.818;6.516;2023-04-22T02:29:59;11.73;;;10.57;;
60722;SDS011;46574;52.818;6.516;2023-04-22T02:32:24;10.30;;;9.30;;
60722;SDS011;46574;52.818;6.516;2023-04-22T02:34:50;9.77;;;8.88;;
60722;SDS011;46574;52.818;6.516;2023-04-22T02:37:16;9.55;;;8.65;;
60722;SDS011;46574;52.818;6.516;2023-04-22T02:39:42;9.32;;;8.52;;
60722;SDS011;46574;52.818;6.516;2023-04-22T02:42:08;10.07;;;9.07;;
60722;SDS011;46574;52.818;6.516;2023-04-22T02:44:34;9.57;;;8.65;;
60722;SDS011;46574;52.818;6.516;2023-04-22T02:47:00;11.75;;;10.57;;
60722;SDS011;46574;52.818;6.516;2023-04-22T02:49:27;10.75;;;9.70;;
60722;SDS011;46574;52.818;6.516;2023-04-22T02:51:53;10.32;;;9.20;;
60722;SDS011;46574;52.818;6.516;2023-04-22T02:54:18;9.65;;;8.70;;
60722;SDS011;46574;52.818;6.516;2023-04-22T02:56:44;9.68;;;8.65;;
60722;SDS011;46574;52.818;6.516;2023-04-22T02:59:10;9.88;;;9.02;;
60722;SDS011;46574;52.818;6.516;2023-04-22T03:01:35;9.38;;;8.57;;
60722;SDS011;46574;52.818;6.516;2023-04-22T03:04:01;8.75;;;7.95;;
60722;SDS011;46574;52.818;6.516;2023-04-22T03:06:27;10.63;;;9.63;;
60722;SDS011;46574;52.818;6.516;2023-04-22T03:08:52;10.07;;;9.18;;
60722;SDS011;46574;52.818;6.516;2023-04-22T03:11:18;10.48;;;9.35;;
60722;SDS011;46574;52.818;6.516;2023-04-22T03:13:43;10.07;;;9.10;;
60722;SDS011;46574;52.818;6.516;2023-04-22T03:16:09;8.50;;;7.80;;
60722;SDS011;46574;52.818;6.516;2023-04-22T03:18:35;8.93;;;8.13;;
60722;SDS011;46574;52.818;6.516;2023-04-22T03:21:01;8.23;;;7.53;;
60722;SDS011;46574;52.818;6.516;2023-04-22T03:23:26;8.57;;;7.78;;
60722;SDS011;46574;52.818;6.516;2023-04-22T03:25:52;7.40;;;6.80;;
60722;SDS011;46574;52.818;6.516;2023-04-22T03:28:17;8.65;;;7.85;;
60722;SDS011;46574;52.818;6.516;2023-04-22T03:30:43;8.57;;;7.78;;
60722;SDS011;46574;52.818;6.516;2023-04-22T03:33:09;10.05;;;9.23;;
60722;SDS011;46574;52.818;6.516;2023-04-22T03:35:35;8.60;;;7.90;;
60722;SDS011;46574;52.818;6.516;2023-04-22T03:38:01;9.82;;;8.93;;
60722;SDS011;46574;52.818;6.516;2023-04-22T03:40:27;10.43;;;9.52;;
60722;SDS011;46574;52.818;6.516;2023-04-22T03:42:52;9.77;;;8.98;;
60722;SDS011;46574;52.818;6.516;2023-04-22T03:45:18;9.00;;;8.20;;
60722;SDS011;46574;52.818;6.516;2023-04-22T03:47:43;9.55;;;8.65;;
60722;SDS011;46574;52.818;6.516;2023-04-22T03:50:09;10.30;;;9.27;;
60722;SDS011;46574;52.818;6.516;2023-04-22T03:52:35;10.35;;;9.45;;
60722;SDS011;46574;52.818;6.516;2023-04-22T03:55:00;10.90;;;9.90;;
60722;SDS011;46574;52.818;6.516;2023-04-22T03:57:26;9.27;;;8.48;;
60722;SDS011;46574;52.818;6.516;2023-04-22T03:59:52;11.63;;;10.52;;
60722;SDS011;46574;52.818;6.516;2023-04-22T04:02:17;10.02;;;9.13;;
60722;SDS011;46574;52.818;6.516;2023-04-22T04:04:43;10.63;;;9.73;;
60722;SDS011;46574;52.818;6.516;2023-04-22T04:07:09;11.45;;;10.35;;
60722;SDS011;46574;52.818;6.516;2023-04-22T04:09:34;11.68;;;10.50;;
60722;SDS011;46574;52.818;6.516;2023-04-22T04:12:00;12.75;;;11.50;;
60722;SDS011;46574;52.818;6.516;2023-04-22T04:14:27;12.98;;;11.82;;
60722;SDS011;46574;52.818;6.516;2023-04-22T04:16:52;12.07;;;10.98;;
60722;SDS011;46574;52.818;6.516;2023-04-22T04:19:18;13.23;;;12.02;;
60722;SDS011;46574;52.818;6.516;2023-04-22T04:21:43;13.55;;;12.27;;
60722;SDS011;46574;52.818;6.516;2023-04-22T04:24:09;14.25;;;12.82;;
60722;SDS011;46574;52.818;6.516;2023-04-22T04:26:35;14.77;;;13.38;;
60722;SDS011;46574;52.818;6.516;2023-04-22T04:29:02;16.35;;;14.75;;
60722;SDS011;46574;52.818;6.516;2023-04-22T04:31:28;15.80;;;14.13;;
60722;SDS011;46574;52.818;6.516;2023-04-22T04:33:53;17.55;;;15.57;;
60722;SDS011;46574;52.818;6.516;2023-04-22T04:36:21;17.75;;;15.30;;
60722;SDS011;46574;52.818;6.516;2023-04-22T04:38:50;15.75;;;14.15;;
60722;SDS011;46574;52.818;6.516;2023-04-22T04:41:16;16.15;;;14.50;;
60722;SDS011;46574;52.818;6.516;2023-04-22T04:43:45;16.10;;;14.50;;
60722;SDS011;46574;52.818;6.516;2023-04-22T04:46:11;17.55;;;15.85;;
60722;SDS011;46574;52.818;6.516;2023-04-22T04:48:39;16.55;;;14.95;;
60722;SDS011;46574;52.818;6.516;2023-04-22T04:51:10;18.77;;;16.88;;
60722;SDS011;46574;52.818;6.516;2023-04-22T04:53:35;15.93;;;14.23;;
60722;SDS011;46574;52.818;6.516;2023-04-22T04:56:01;15.80;;;14.30;;
60722;SDS011;46574;52.818;6.516;2023-04-22T04:58:27;15.07;;;13.63;;
60722;SDS011;46574;52.818;6.516;2023-04-22T05:00:52;17.15;;;15.18;;
60722;SDS011;46574;52.818;6.516;2023-04-22T05:03:18;15.38;;;13.88;;
60722;SDS011;46574;52.818;6.516;2023-04-22T05:05:44;19.08;;;17.08;;
60722;SDS011;46574;52.818;6.516;2023-04-22T05:08:12;18.08;;;16.13;;
60722;SDS011;46574;52.818;6.516;2023-04-22T05:10:37;17.67;;;15.90;;
60722;SDS011;46574;52.818;6.516;2023-04-22T05:13:03;17.98;;;16.17;;
60722;SDS011;46574;52.818;6.516;2023-04-22T05:15:29;17.90;;;16.10;;
60722;SDS011;46574;52.818;6.516;2023-04-22T05:17:54;16.85;;;15.20;;
60722;SDS011;46574;52.818;6.516;2023-04-22T05:20:21;17.55;;;15.75;;
60722;SDS011;46574;52.818;6.516;2023-04-22T05:22:46;16.95;;;15.27;;
60722;SDS011;46574;52.818;6.516;2023-04-22T05:25:12;17.13;;;15.32;;
60722;SDS011;46574;52.818;6.516;2023-04-22T05:27:39;18.40;;;16.60;;
60722;SDS011;46574;52.818;6.516;2023-04-22T05:30:05;19.50;;;17.40;;
60722;SDS011;46574;52.818;6.516;2023-04-22T05:32:32;17.58;;;15.77;;
60722;SDS011;46574;52.818;6.516;2023-04-22T05:34:57;17.95;;;16.15;;
60722;SDS011;46574;52.818;6.516;2023-04-22T05:37:23;16.83;;;15.13;;
60722;SDS011;46574;52.818;6.516;2023-04-22T05:39:49;18.25;;;16.40;;
60722;SDS011;46574;52.818;6.516;2023-04-22T05:42:15;19.02;;;17.13;;
60722;SDS011;46574;52.818;6.516;2023-04-22T05:44:40;17.05;;;15.45;;
60722;SDS011;46574;52.818;6.516;2023-04-22T05:47:06;18.30;;;16.38;;
60722;SDS011;46574;52.818;6.516;2023-04-22T05:49:32;19.25;;;17.23;;
60722;SDS011;46574;52.818;6.516;2023-04-22T05:51:57;19.55;;;17.73;;
60722;SDS011;46574;52.818;6.516;2023-04-22T05:54:23;20.13;;;18.02;;
60722;SDS011;46574;52.818;6.516;2023-04-22T05:56:49;19.05;;;17.25;;
60722;SDS011;46574;52.818;6.516;2023-04-22T05:59:15;17.92;;;15.95;;
60722;SDS011;46574;52.818;6.516;2023-04-22T06:01:41;16.73;;;15.13;;
60722;SDS011;46574;52.818;6.516;2023-04-22T06:04:06;16.95;;;15.25;;
60722;SDS011;46574;52.818;6.516;2023-04-22T06:06:34;18.42;;;16.63;;
60722;SDS011;46574;52.818;6.516;2023-04-22T06:09:00;19.48;;;17.58;;
60722;SDS011;46574;52.818;6.516;2023-04-22T06:11:26;18.15;;;16.40;;
60722;SDS011;46574;52.818;6.516;2023-04-22T06:13:52;26.35;;;23.75;;
60722;SDS011;46574;52.818;6.516;2023-04-22T06:16:18;23.38;;;21.00;;
60722;SDS011;46574;52.818;6.516;2023-04-22T06:18:43;21.08;;;19.13;;
60722;SDS011;46574;52.818;6.516;2023-04-22T06:21:09;22.83;;;20.52;;
60722;SDS011;46574;52.818;6.516;2023-04-22T06:23:35;20.83;;;18.83;;
60722;SDS011;46574;52.818;6.516;2023-04-22T06:26:01;24.48;;;22.08;;
60722;SDS011;46574;52.818;6.516;2023-04-22T06:28:27;22.45;;;20.25;;
60722;SDS011;46574;52.818;6.516;2023-04-22T06:30:52;22.63;;;20.48;;
60722;SDS011;46574;52.818;6.516;2023-04-22T06:33:18;20.67;;;18.60;;
60722;SDS011;46574;52.818;6.516;2023-04-22T06:35:44;20.52;;;18.40;;
60722;SDS011;46574;52.818;6.516;2023-04-22T06:38:09;20.52;;;18.45;;
60722;SDS011;46574;52.818;6.516;2023-04-22T06:40:35;24.45;;;21.80;;
60722;SDS011;46574;52.818;6.516;2023-04-22T06:43:01;19.30;;;17.45;;
60722;SDS011;46574;52.818;6.516;2023-04-22T06:45:26;17.83;;;16.02;;
60722;SDS011;46574;52.818;6.516;2023-04-22T06:47:52;20.80;;;18.58;;
60722;SDS011;46574;52.818;6.516;2023-04-22T06:50:18;19.20;;;17.20;;
60722;SDS011;46574;52.818;6.516;2023-04-22T06:52:44;17.77;;;16.08;;
60722;SDS011;46574;52.818;6.516;2023-04-22T06:55:10;18.05;;;16.35;;
60722;SDS011;46574;52.818;6.516;2023-04-22T06:57:35;17.15;;;15.38;;
60722;SDS011;46574;52.818;6.516;2023-04-22T07:00:02;18.10;;;16.38;;
60722;SDS011;46574;52.818;6.516;2023-04-22T07:02:29;21.05;;;18.83;;
60722;SDS011;46574;52.818;6.516;2023-04-22T07:04:54;18.58;;;16.77;;
60722;SDS011;46574;52.818;6.516;2023-04-22T07:07:20;19.35;;;17.50;;
60722;SDS011;46574;52.818;6.516;2023-04-22T07:09:46;24.40;;;21.83;;
60722;SDS011;46574;52.818;6.516;2023-04-22T07:12:11;18.73;;;16.92;;
60722;SDS011;46574;52.818;6.516;2023-04-22T07:14:39;21.65;;;19.45;;
60722;SDS011;46574;52.818;6.516;2023-04-22T07:17:08;20.17;;;18.20;;
60722;SDS011;46574;52.818;6.516;2023-04-22T07:19:34;22.52;;;20.10;;
60722;SDS011;46574;52.818;6.516;2023-04-22T07:22:00;18.42;;;16.67;;
60722;SDS011;46574;52.818;6.516;2023-04-22T07:24:27;19.75;;;17.85;;
60722;SDS011;46574;52.818;6.516;2023-04-22T07:26:53;17.65;;;15.95;;
60722;SDS011;46574;52.818;6.516;2023-04-22T07:29:18;22.08;;;19.88;;
60722;SDS011;46574;52.818;6.516;2023-04-22T07:31:44;20.17;;;18.27;;
60722;SDS011;46574;52.818;6.516;2023-04-22T07:34:10;18.73;;;16.83;;
60722;SDS011;46574;52.818;6.516;2023-04-22T07:36:36;18.92;;;17.15;;
60722;SDS011;46574;52.818;6.516;2023-04-22T07:39:01;19.27;;;17.20;;
60722;SDS011;46574;52.818;6.516;2023-04-22T07:41:27;18.50;;;16.60;;
60722;SDS011;46574;52.818;6.516;2023-04-22T07:43:53;18.13;;;16.30;;
60722;SDS011;46574;52.818;6.516;2023-04-22T07:46:19;16.73;;;15.02;;
60722;SDS011;46574;52.818;6.516;2023-04-22T07:48:45;16.75;;;15.18;;
60722;SDS011;46574;52.818;6.516;2023-04-22T07:51:10;16.85;;;15.20;;
60722;SDS011;46574;52.818;6.516;2023-04-22T07:53:36;18.13;;;16.33;;
60722;SDS011;46574;52.818;6.516;2023-04-22T07:56:02;18.83;;;17.08;;
60722;SDS011;46574;52.818;6.516;2023-04-22T07:58:28;18.25;;;16.45;;
60722;SDS011;46574;52.818;6.516;2023-04-22T08:00:54;18.60;;;16.70;;
60722;SDS011;46574;52.818;6.516;2023-04-22T08:03:19;16.45;;;14.82;;
60722;SDS011;46574;52.818;6.516;2023-04-22T08:05:45;17.67;;;16.05;;
60722;SDS011;46574;52.818;6.516;2023-04-22T08:08:11;16.08;;;14.48;;
60722;SDS011;46574;52.818;6.516;2023-04-22T08:10:37;17.30;;;15.70;;
60722;SDS011;46574;52.818;6.516;2023-04-22T08:13:02;16.75;;;15.15;;
60722;SDS011;46574;52.818;6.516;2023-04-22T08:15:28;16.05;;;14.52;;
60722;SDS011;46574;52.818;6.516;2023-04-22T08:17:54;16.55;;;15.00;;
60722;SDS011;46574;52.818;6.516;2023-04-22T08:20:20;16.30;;;14.75;;
60722;SDS011;46574;52.818;6.516;2023-04-22T08:22:46;13.80;;;12.40;;
60722;SDS011;46574;52.818;6.516;2023-04-22T08:25:12;15.50;;;14.07;;
60722;SDS011;46574;52.818;6.516;2023-04-22T08:27:38;15.88;;;14.27;;
60722;SDS011;46574;52.818;6.516;2023-04-22T08:30:04;15.20;;;13.48;;
60722;SDS011;46574;52.818;6.516;2023-04-22T08:32:31;14.20;;;12.80;;
60722;SDS011;46574;52.818;6.516;2023-04-22T08:34:56;13.07;;;11.95;;
60722;SDS011;46574;52.818;6.516;2023-04-22T08:37:22;13.60;;;12.27;;
60722;SDS011;46574;52.818;6.516;2023-04-22T08:39:49;14.35;;;13.00;;
60722;SDS011;46574;52.818;6.516;2023-04-22T08:42:16;12.70;;;11.55;;
60722;SDS011;46574;52.818;6.516;2023-04-22T08:44:43;12.60;;;11.35;;
60722;SDS011;46574;52.818;6.516;2023-04-22T08:47:09;13.32;;;11.93;;
60722;SDS011;46574;52.818;6.516;2023-04-22T08:49:36;12.90;;;11.60;;
60722;SDS011;46574;52.818;6.516;2023-04-22T08:52:02;13.75;;;12.43;;
60722;SDS011;46574;52.818;6.516;2023-04-22T08:54:28;13.57;;;12.32;;
60722;SDS011;46574;52.818;6.516;2023-04-22T08:56:53;12.43;;;10.82;;
60722;SDS011;46574;52.818;6.516;2023-04-22T08:59:19;13.90;;;12.70;;
60722;SDS011;46574;52.818;6.516;2023-04-22T09:01:48;13.23;;;12.10;;
60722;SDS011;46574;52.818;6.516;2023-04-22T09:04:16;12.90;;;11.70;;
60722;SDS011;46574;52.818;6.516;2023-04-22T09:06:43;12.77;;;11.63;;
60722;SDS011;46574;52.818;6.516;2023-04-22T09:09:09;13.25;;;11.95;;
60722;SDS011;46574;52.818;6.516;2023-04-22T09:11:34;12.90;;;11.80;;
60722;SDS011;46574;52.818;6.516;2023-04-22T09:14:04;12.52;;;11.38;;
60722;SDS011;46574;52.818;6.516;2023-04-22T09:16:31;14.02;;;12.10;;
60722;SDS011;46574;52.818;6.516;2023-04-22T09:18:57;12.15;;;10.98;;
60722;SDS011;46574;52.818;6.516;2023-04-22T09:21:24;12.23;;;10.95;;
60722;SDS011;46574;52.818;6.516;2023-04-22T09:23:53;12.25;;;11.15;;
60722;SDS011;46574;52.818;6.516;2023-04-22T09:26:23;12.60;;;11.30;;
60722;SDS011;46574;52.818;6.516;2023-04-22T09:31:16;11.25;;;10.25;;
60722;SDS011;46574;52.818;6.516;2023-04-22T09:33:49;11.60;;;10.52;;
60722;SDS011;46574;52.818;6.516;2023-04-22T09:36:20;12.82;;;11.52;;
60722;SDS011;46574;52.818;6.516;2023-04-22T09:38:53;11.60;;;10.60;;
60722;SDS011;46574;52.818;6.516;2023-04-22T09:41:30;11.07;;;9.98;;
60722;SDS011;46574;52.818;6.516;2023-04-22T09:43:57;10.95;;;9.98;;
60722;SDS011;46574;52.818;6.516;2023-04-22T09:46:24;10.20;;;9.30;;
60722;SDS011;46574;52.818;6.516;2023-04-22T09:48:51;10.50;;;9.60;;
60722;SDS011;46574;52.818;6.516;2023-04-22T09:51:20;10.02;;;9.02;;
60722;SDS011;46574;52.818;6.516;2023-04-22T09:53:56;10.13;;;9.23;;
60722;SDS011;46574;52.818;6.516;2023-04-22T09:56:38;10.27;;;9.38;;
60722;SDS011;46574;52.818;6.516;2023-04-22T10:01:49;10.00;;;9.00;;
60722;SDS011;46574;52.818;6.516;2023-04-22T10:04:16;10.23;;;9.32;;
60722;SDS011;46574;52.818;6.516;2023-04-22T10:06:45;10.40;;;9.55;;
60722;SDS011;46574;52.818;6.516;2023-04-22T10:09:12;10.05;;;9.05;;
60722;SDS011;46574;52.818;6.516;2023-04-22T10:11:41;10.98;;;9.85;;
60722;SDS011;46574;52.818;6.516;2023-04-22T10:14:08;10.68;;;9.55;;
60722;SDS011;46574;52.818;6.516;2023-04-22T10:16:38;10.75;;;9.75;;
60722;SDS011;46574;52.818;6.516;2023-04-22T10:19:07;9.73;;;8.82;;
60722;SDS011;46574;52.818;6.516;2023-04-22T10:21:37;8.60;;;7.90;;
60722;SDS011;46574;52.818;6.516;2023-04-22T10:24:05;10.05;;;9.15;;
60722;SDS011;46574;52.818;6.516;2023-04-22T10:26:41;10.25;;;9.30;;
60722;SDS011;46574;52.818;6.516;2023-04-22T10:29:07;9.40;;;8.50;;
60722;SDS011;46574;52.818;6.516;2023-04-22T10:31:37;9.20;;;8.30;;
60722;SDS011;46574;52.818;6.516;2023-04-22T10:34:10;8.95;;;8.25;;
60722;SDS011;46574;52.818;6.516;2023-04-22T10:39:21;9.60;;;8.70;;
60722;SDS011;46574;52.818;6.516;2023-04-22T10:41:49;8.48;;;7.70;;
60722;SDS011;46574;52.818;6.516;2023-04-22T10:44:17;8.68;;;7.88;;
60722;SDS011;46574;52.818;6.516;2023-04-22T10:49:20;9.57;;;8.70;;
60722;SDS011;46574;52.818;6.516;2023-04-22T10:51:48;9.38;;;8.52;;
60722;SDS011;46574;52.818;6.516;2023-04-22T10:57:06;9.68;;;8.88;;
60722;SDS011;46574;52.818;6.516;2023-04-22T10:59:45;9.70;;;8.77;;
60722;SDS011;46574;52.818;6.516;2023-04-22T11:02:13;10.20;;;8.95;;
60722;SDS011;46574;52.818;6.516;2023-04-22T11:04:40;9.27;;;8.40;;
60722;SDS011;46574;52.818;6.516;2023-04-22T11:09:53;8.75;;;8.05;;
60722;SDS011;46574;52.818;6.516;2023-04-22T11:17:38;7.80;;;7.13;;
60722;SDS011;46574;52.818;6.516;2023-04-22T11:20:09;8.70;;;7.97;;
60722;SDS011;46574;52.818;6.516;2023-04-22T11:22:37;9.27;;;8.30;;
60722;SDS011;46574;52.818;6.516;2023-04-22T11:25:07;9.18;;;8.38;;
60722;SDS011;46574;52.818;6.516;2023-04-22T11:27:34;8.38;;;7.68;;
60722;SDS011;46574;52.818;6.516;2023-04-22T11:30:01;8.40;;;7.70;;
60722;SDS011;46574;52.818;6.516;2023-04-22T11:32:35;8.80;;;8.00;;
60722;SDS011;46574;52.818;6.516;2023-04-22T11:35:03;8.98;;;8.18;;
60722;SDS011;46574;52.818;6.516;2023-04-22T11:37:30;9.38;;;8.57;;
60722;SDS011;46574;52.818;6.516;2023-04-22T11:40:15;9.35;;;8.32;;
60722;SDS011;46574;52.818;6.516;2023-04-22T11:42:42;9.65;;;8.85;;
60722;SDS011;46574;52.818;6.516;2023-04-22T11:45:08;9.43;;;8.55;;
60722;SDS011;46574;52.818;6.516;2023-04-22T11:47:35;9.15;;;8.38;;
60722;SDS011;46574;52.818;6.516;2023-04-22T11:50:05;10.35;;;9.35;;
60722;SDS011;46574;52.818;6.516;2023-04-22T11:55:12;9.48;;;8.68;;
60722;SDS011;46574;52.818;6.516;2023-04-22T11:57:39;9.73;;;8.83;;
60722;SDS011;46574;52.818;6.516;2023-04-22T12:00:06;9.77;;;8.98;;
60722;SDS011;46574;52.818;6.516;2023-04-22T12:02:35;9.75;;;8.85;;
60722;SDS011;46574;52.818;6.516;2023-04-22T12:05:01;8.50;;;7.70;;
60722;SDS011;46574;52.818;6.516;2023-04-22T12:07:27;10.98;;;10.00;;
60722;SDS011;46574;52.818;6.516;2023-04-22T12:09:53;10.52;;;9.52;;
60722;SDS011;46574;52.818;6.516;2023-04-22T12:12:25;9.73;;;8.93;;
60722;SDS011;46574;52.818;6.516;2023-04-22T12:14:51;10.23;;;9.07;;
60722;SDS011;46574;52.818;6.516;2023-04-22T12:17:23;10.07;;;9.18;;
60722;SDS011;46574;52.818;6.516;2023-04-22T12:19:53;10.15;;;9.20;;
60722;SDS011;46574;52.818;6.516;2023-04-22T12:22:23;9.75;;;8.85;;
60722;SDS011;46574;52.818;6.516;2023-04-22T12:24:50;9.00;;;8.20;;
60722;SDS011;46574;52.818;6.516;2023-04-22T12:27:15;10.10;;;9.10;;
60722;SDS011;46574;52.818;6.516;2023-04-22T12:29:49;10.57;;;9.43;;
60722;SDS011;46574;52.818;6.516;2023-04-22T12:32:23;10.25;;;9.35;;
60722;SDS011;46574;52.818;6.516;2023-04-22T12:34:50;9.10;;;8.13;;
60722;SDS011;46574;52.818;6.516;2023-04-22T12:37:16;10.57;;;9.57;;
60722;SDS011;46574;52.818;6.516;2023-04-22T12:39:43;9.98;;;8.93;;
60722;SDS011;46574;52.818;6.516;2023-04-22T12:42:10;10.27;;;9.27;;
60722;SDS011;46574;52.818;6.516;2023-04-22T12:44:35;10.60;;;9.50;;
60722;SDS011;46574;52.818;6.516;2023-04-22T12:47:01;10.30;;;9.30;;
60722;SDS011;46574;52.818;6.516;2023-04-22T12:49:27;10.75;;;9.85;;
60722;SDS011;46574;52.818;6.516;2023-04-22T12:51:53;11.07;;;10.10;;
60722;SDS011;46574;52.818;6.516;2023-04-22T12:54:18;11.02;;;10.02;;
60722;SDS011;46574;52.818;6.516;2023-04-22T12:56:45;10.75;;;9.65;;
60722;SDS011;46574;52.818;6.516;2023-04-22T12:59:11;10.50;;;9.50;;
60722;SDS011;46574;52.818;6.516;2023-04-22T13:01:38;11.02;;;9.60;;
60722;SDS011;46574;52.818;6.516;2023-04-22T13:04:03;11.27;;;10.18;;
60722;SDS011;46574;52.818;6.516;2023-04-22T13:06:30;10.75;;;9.75;;
60722;SDS011;46574;52.818;6.516;2023-04-22T13:08:56;11.07;;;9.88;;
60722;SDS011;46574;52.818;6.516;2023-04-22T13:11:25;10.55;;;9.45;;
60722;SDS011;46574;52.818;6.516;2023-04-22T13:13:50;9.05;;;8.15;;
60722;SDS011;46574;52.818;6.516;2023-04-22T13:16:16;8.23;;;7.45;;
60722;SDS011;46574;52.818;6.516;2023-04-22T13:18:42;9.32;;;8.40;;
60722;SDS011;46574;52.818;6.516;2023-04-22T13:21:08;8.95;;;8.02;;
60722;SDS011;46574;52.818;6.516;2023-04-22T13:23:33;10.07;;;9.10;;
60722;SDS011;46574;52.818;6.516;2023-04-22T13:25:59;8.32;;;7.53;;
60722;SDS011;46574;52.818;6.516;2023-04-22T13:28:26;8.77;;;7.88;;
60722;SDS011;46574;52.818;6.516;2023-04-22T13:30:52;8.65;;;7.95;;
60722;SDS011;46574;52.818;6.516;2023-04-22T13:33:19;9.63;;;8.55;;
60722;SDS011;46574;52.818;6.516;2023-04-22T13:35:44;9.40;;;8.50;;
60722;SDS011;46574;52.818;6.516;2023-04-22T13:38:10;9.98;;;9.05;;
60722;SDS011;46574;52.818;6.516;2023-04-22T13:40:36;11.02;;;10.10;;
60722;SDS011;46574;52.818;6.516;2023-04-22T13:43:01;10.55;;;9.60;;
60722;SDS011;46574;52.818;6.516;2023-04-22T13:45:28;11.25;;;10.20;;
60722;SDS011;46574;52.818;6.516;2023-04-22T13:47:54;11.35;;;10.35;;
60722;SDS011;46574;52.818;6.516;2023-04-22T13:50:21;10.98;;;10.02;;
60722;SDS011;46574;52.818;6.516;2023-04-22T13:52:47;11.35;;;10.45;;
60722;SDS011;46574;52.818;6.516;2023-04-22T13:55:13;11.07;;;10.13;;
60722;SDS011;46574;52.818;6.516;2023-04-22T13:57:39;10.70;;;9.70;;
60722;SDS011;46574;52.818;6.516;2023-04-22T14:00:05;10.93;;;9.93;;
60722;SDS011;46574;52.818;6.516;2023-04-22T14:02:31;9.40;;;8.52;;
60722;SDS011;46574;52.818;6.516;2023-04-22T14:04:56;10.38;;;9.20;;
60722;SDS011;46574;52.818;6.516;2023-04-22T14:07:22;11.07;;;8.77;;
60722;SDS011;46574;52.818;6.516;2023-04-22T14:09:48;9.10;;;8.20;;
60722;SDS011;46574;52.818;6.516;2023-04-22T14:12:14;9.45;;;8.65;;
60722;SDS011;46574;52.818;6.516;2023-04-22T14:14:40;13.13;;;11.80;;
60722;SDS011;46574;52.818;6.516;2023-04-22T14:17:06;14.18;;;12.65;;
60722;SDS011;46574;52.818;6.516;2023-04-22T14:19:32;14.43;;;13.02;;
60722;SDS011;46574;52.818;6.516;2023-04-22T14:21:58;10.20;;;9.20;;
60722;SDS011;46574;52.818;6.516;2023-04-22T14:24:23;9.73;;;8.80;;
60722;SDS011;46574;52.818;6.516;2023-04-22T14:26:49;10.65;;;9.57;;
60722;SDS011;46574;52.818;6.516;2023-04-22T14:29:16;10.18;;;9.25;;
60722;SDS011;46574;52.818;6.516;2023-04-22T14:31:42;10.20;;;9.05;;
60722;SDS011;46574;52.818;6.516;2023-04-22T14:34:08;10.88;;;9.88;;
60722;SDS011;46574;52.818;6.516;2023-04-22T14:36:34;9.63;;;8.63;;
60722;SDS011;46574;52.818;6.516;2023-04-22T14:38:59;9.88;;;9.05;;
60722;SDS011;46574;52.818;6.516;2023-04-22T14:41:25;9.90;;;8.93;;
60722;SDS011;46574;52.818;6.516;2023-04-22T14:43:51;10.32;;;9.43;;
60722;SDS011;46574;52.818;6.516;2023-04-22T14:46:16;10.68;;;9.63;;
60722;SDS011;46574;52.818;6.516;2023-04-22T14:48:42;10.35;;;9.38;;
60722;SDS011;46574;52.818;6.516;2023-04-22T14:51:08;11.23;;;10.13;;
60722;SDS011;46574;52.818;6.516;2023-04-22T14:53:35;10.55;;;9.23;;